Arden, Delaware
Current Conditions -  °F | °C
As of 7:51 PM on Thursday 30 Oct 2014 (Local Time) from KILG Reporting Station
Clear Clear  
Wind Chill: 50°   Ceiling: Unl
Heat Index: 50°   Visibility: 10mi
Dew Point: 38°   Wind: 7mph
Humidity: 63%   Direction: 310°NW
Pressure: 30.04"   Gusts: NA
Location:  39.81°N, 75.49°W
Report Text: KILG 302351Z AUTO 31006KT 10SM CLR 10/03 A3004 RMK AO2 SLP171 T01000033 10156 20094 52010
Loading
Personal Weather Stations






























Interactive Weather Map
Tropical Storm Tracking
New forecast layout! Learn more

10-Day Weather Forecast

Advertisements
Track Severe Weather on mobile